createdAt,value
2022-09-01T00:00:14.705Z,100486.44
2022-09-01T00:00:46.917Z,100494.63
2022-09-01T00:01:18.938Z,100490.38
2022-09-01T00:01:50.976Z,100487.03
2022-09-01T00:02:22.744Z,100495.88
2022-09-01T00:02:57.291Z,100485.03
2022-09-01T00:03:29.137Z,100490.25
2022-09-01T00:04:02.073Z,100482.22
2022-09-01T00:04:33.815Z,100485.91
2022-09-01T00:05:05.720Z,100487.56
2022-09-01T00:05:37.383Z,100487.44
2022-09-01T00:06:09.155Z,100486.59
2022-09-01T00:06:41.446Z,100486.72
2022-09-01T00:07:13.398Z,100486.72
2022-09-01T00:07:45.125Z,100491.25
2022-09-01T00:08:18.665Z,100483.38
2022-09-01T00:08:51.237Z,100487.72
2022-09-01T00:09:22.871Z,100480.56
2022-09-01T00:09:54.907Z,100487.72
2022-09-01T00:10:26.568Z,100485.03
2022-09-01T00:10:58.629Z,100487.44
2022-09-01T00:11:30.822Z,100486.72
2022-09-01T00:12:02.530Z,100484.19
2022-09-01T00:12:34.322Z,100489.56
2022-09-01T00:13:06.007Z,100492.38
2022-09-01T00:13:38.224Z,100491.41
2022-09-01T00:14:24.067Z,100486.03
2022-09-01T00:15:01.567Z,100484.19
2022-09-01T00:15:34.353Z,100489.69
2022-09-01T00:16:06.432Z,100488.16
2022-09-01T00:16:38.378Z,100486.31
2022-09-01T00:17:10.413Z,100489.69
2022-09-01T00:17:42.056Z,100491.69
2022-09-01T00:18:13.934Z,100493.66
2022-09-01T00:18:46.415Z,100492.50
2022-09-01T00:19:18.192Z,100490.13
2022-09-01T00:19:49.919Z,100485.63
2022-09-01T00:20:21.568Z,100492.66
2022-09-01T00:20:53.678Z,100489.16
2022-09-01T00:21:27.191Z,100489.41
2022-09-01T00:21:59.226Z,100494.34
2022-09-01T00:22:31.301Z,100489.28
2022-09-01T00:23:03.317Z,100497.44
2022-09-01T00:23:35.009Z,100491.25
2022-09-01T00:24:06.766Z,100489.56
2022-09-01T00:24:38.382Z,100491.97
2022-09-01T00:25:10.439Z,100487.59
2022-09-01T00:25:42.210Z,100489.41
2022-09-01T00:26:14.318Z,100490.41
2022-09-01T00:26:45.951Z,100487.88
2022-09-01T00:27:17.953Z,100489.56
2022-09-01T00:27:51.326Z,100490.41
2022-09-01T00:28:22.945Z,100487.88
2022-09-01T00:29:00.925Z,100484.22
2022-09-01T00:29:32.900Z,100488.72
2022-09-01T00:30:04.597Z,100489.16
2022-09-01T00:30:36.713Z,100489.84
2022-09-01T00:31:08.447Z,100492.66
2022-09-01T00:31:40.085Z,100484.78
2022-09-01T00:32:11.885Z,100494.22
2022-09-01T00:32:43.572Z,100494.34
2022-09-01T00:33:15.177Z,100487.31
2022-09-01T00:33:47.145Z,100491.53
2022-09-01T00:34:19.113Z,100498.16
2022-09-01T00:34:50.748Z,100491.00
2022-09-01T00:35:22.665Z,100489.28
2022-09-01T00:35:54.338Z,100492.94
2022-09-01T00:36:25.980Z,100486.47
2022-09-01T00:36:57.631Z,100495.19
2022-09-01T00:37:29.357Z,100489.28
2022-09-01T00:38:01.063Z,100491.53
2022-09-01T00:38:33.063Z,100492.38
2022-09-01T00:39:05.091Z,100491.53
2022-09-01T00:39:36.704Z,100494.22
2022-09-01T00:40:08.684Z,100495.88
2022-09-01T00:40:40.718Z,100488.19
2022-09-01T00:41:12.813Z,100492.50
2022-09-01T00:41:44.447Z,100495.19
2022-09-01T00:42:16.291Z,100493.38
2022-09-01T00:42:48.184Z,100493.22
2022-09-01T00:43:36.469Z,100492.81
2022-09-01T00:44:09.014Z,100492.50
2022-09-01T00:44:40.783Z,100493.81
2022-09-01T00:45:12.669Z,100491.00
2022-09-01T00:45:44.635Z,100487.59
2022-09-01T00:46:20.865Z,100483.94
2022-09-01T00:46:55.184Z,100482.97
2022-09-01T00:47:28.478Z,100489.28
2022-09-01T00:48:00.484Z,100486.75
2022-09-01T00:48:33.276Z,100488.44
2022-09-01T00:49:04.849Z,100486.75
2022-09-01T00:49:41.098Z,100484.06
2022-09-01T00:50:12.712Z,100483.94
2022-09-01T00:50:44.790Z,100483.09
2022-09-01T00:51:21.125Z,100487.44
2022-09-01T00:51:54.785Z,100486.75
2022-09-01T00:52:36.403Z,100488.72
2022-09-01T00:53:08.131Z,100490.41
2022-09-01T00:53:40.241Z,100482.25
2022-09-01T00:54:12.923Z,100489.56
2022-09-01T00:54:45.692Z,100485.06
2022-09-01T00:55:27.266Z,100488.44
2022-09-01T00:55:59.179Z,100486.63
2022-09-01T00:56:30.791Z,100487.72
2022-09-01T00:57:02.945Z,100486.06
2022-09-01T00:57:34.639Z,100484.22
2022-09-01T00:58:06.684Z,100487.59
2022-09-01T00:58:51.425Z,100477.75
2022-09-01T00:59:23.406Z,100485.78
2022-09-01T00:59:56.826Z,100485.78
2022-09-01T01:00:29.142Z,100484.50
2022-09-01T01:01:00.807Z,100480.00
2022-09-01T01:01:32.616Z,100478.16
2022-09-01T01:02:04.369Z,100483.66
2022-09-01T01:02:36.209Z,100475.78
2022-09-01T01:03:08.850Z,100485.38
2022-09-01T01:03:40.511Z,100477.63
2022-09-01T01:04:12.303Z,100480.28
2022-09-01T01:04:43.942Z,100481.41
2022-09-01T01:05:15.783Z,100483.66
2022-09-01T01:05:51.563Z,100480.16
2022-09-01T01:06:23.986Z,100477.63
2022-09-01T01:06:56.386Z,100481.69
2022-09-01T01:07:28.049Z,100475.34
2022-09-01T01:08:00.558Z,100477.63
2022-09-01T01:08:32.981Z,100480.28
2022-09-01T01:09:04.777Z,100476.06
2022-09-01T01:09:38.829Z,100474.94
2022-09-01T01:10:11.137Z,100477.63
2022-09-01T01:10:43.160Z,100475.78
2022-09-01T01:11:15.392Z,100477.34
2022-09-01T01:11:47.926Z,100473.09
2022-09-01T01:12:19.782Z,100475.91
2022-09-01T01:12:51.860Z,100475.78
2022-09-01T01:13:23.755Z,100473.78
2022-09-01T01:13:56.639Z,100470.16
2022-09-01T01:14:28.255Z,100473.66
2022-09-01T01:15:00.669Z,100469.31
2022-09-01T01:15:32.546Z,100472.97
2022-09-01T01:16:05.191Z,100472.41
2022-09-01T01:16:36.995Z,100474.66
2022-09-01T01:17:08.720Z,100470.44
2022-09-01T01:17:40.796Z,100469.88
2022-09-01T01:18:15.046Z,100474.50
2022-09-01T01:18:50.860Z,100474.06
2022-09-01T01:19:39.078Z,100470.84
2022-09-01T01:20:11.659Z,100475.09
2022-09-01T01:20:43.268Z,100469.59
2022-09-01T01:21:28.302Z,100478.59
2022-09-01T01:22:00.030Z,100472.56
2022-09-01T01:22:31.870Z,100472.56
2022-09-01T01:23:06.452Z,100467.19
2022-09-01T01:23:41.869Z,100466.66
2022-09-01T01:24:29.726Z,100476.34
2022-09-01T01:25:01.451Z,100471.00
2022-09-01T01:25:43.218Z,100469.88
2022-09-01T01:26:15.083Z,100478.03
2022-09-01T01:26:46.781Z,100476.47
2022-09-01T01:27:18.456Z,100473.94
2022-09-01T01:27:50.165Z,100475.50
2022-09-01T01:28:28.567Z,100472.69
2022-09-01T01:29:00.244Z,100474.81
2022-09-01T01:29:32.987Z,100476.03
2022-09-01T01:30:04.893Z,100476.75
2022-09-01T01:30:42.246Z,100478.31
2022-09-01T01:31:14.828Z,100479.84
2022-09-01T01:31:46.786Z,100478.31
2022-09-01T01:32:18.389Z,100475.78
2022-09-01T01:32:50.202Z,100480.16
2022-09-01T01:33:22.574Z,100483.25
2022-09-01T01:33:56.199Z,100479.84
2022-09-01T01:34:27.823Z,100484.22
2022-09-01T01:34:59.451Z,100475.09
2022-09-01T01:35:31.488Z,100482.53
2022-09-01T01:36:03.198Z,100481.81
2022-09-01T01:36:35.723Z,100481.69
2022-09-01T01:37:07.344Z,100479.16
2022-09-01T01:37:38.981Z,100481.28
2022-09-01T01:38:10.695Z,100482.22
2022-09-01T01:38:43.943Z,100485.88
2022-09-01T01:39:17.323Z,100474.09
2022-09-01T01:39:49.014Z,100480.00
2022-09-01T01:40:20.827Z,100484.50
2022-09-01T01:40:52.547Z,100485.50
2022-09-01T01:41:24.834Z,100487.03
2022-09-01T01:41:57.119Z,100483.06
2022-09-01T01:42:29.110Z,100486.63
2022-09-01T01:43:01.478Z,100489.66
2022-09-01T01:43:33.200Z,100488.41
2022-09-01T01:44:04.837Z,100489.28
2022-09-01T01:44:37.095Z,100488.19
2022-09-01T01:45:08.974Z,100490.22
2022-09-01T01:45:40.951Z,100487.56
2022-09-01T01:46:12.587Z,100491.81
2022-09-01T01:46:45.249Z,100490.13
2022-09-01T01:47:17.299Z,100497.31
2022-09-01T01:47:49.308Z,100490.13
2022-09-01T01:48:21.649Z,100485.66
2022-09-01T01:48:53.371Z,100489.16
2022-09-01T01:49:25.484Z,100491.81
2022-09-01T01:49:57.426Z,100488.41
2022-09-01T01:50:30.306Z,100497.16
2022-09-01T01:51:01.965Z,100497.31
2022-09-01T01:51:33.783Z,100491.81
2022-09-01T01:52:06.236Z,100497.03
2022-09-01T01:52:40.006Z,100492.63
2022-09-01T01:53:17.555Z,100497.41
2022-09-01T01:53:50.310Z,100492.22
2022-09-01T01:54:22.846Z,100493.03
2022-09-01T01:54:54.895Z,100490.38
2022-09-01T01:55:26.553Z,100495.56
2022-09-01T01:55:58.199Z,100488.69
2022-09-01T01:56:30.299Z,100495.72
2022-09-01T01:57:01.893Z,100492.63
2022-09-01T01:57:33.576Z,100492.63
2022-09-01T01:58:05.250Z,100487.13
2022-09-01T01:58:37.096Z,100491.22
2022-09-01T01:59:09.240Z,100490.09
2022-09-01T01:59:40.975Z,100490.22
2022-09-01T02:00:13.014Z,100496.84
2022-09-01T02:00:44.913Z,100487.84
2022-09-01T02:01:16.841Z,100493.31
2022-09-01T02:01:48.689Z,100490.66
2022-09-01T02:02:20.780Z,100497.69
2022-09-01T02:02:52.814Z,100497.00
2022-09-01T02:03:26.731Z,100495.03
2022-09-01T02:03:59.199Z,100491.50
2022-09-01T02:04:32.113Z,100500.22
2022-09-01T02:05:04.008Z,100496.00
2022-09-01T02:05:36.147Z,100493.50
2022-09-01T02:06:08.143Z,100496.56
2022-09-01T02:06:39.814Z,100494.75
2022-09-01T02:07:11.975Z,100489.25
2022-09-01T02:07:43.580Z,100487.97
2022-09-01T02:08:15.656Z,100489.53
2022-09-01T02:08:49.065Z,100490.38
2022-09-01T02:09:21.172Z,100494.06
2022-09-01T02:09:52.918Z,100496.00
2022-09-01T02:10:26.873Z,100496.84
2022-09-01T02:10:59.312Z,100497.69
2022-09-01T02:11:30.994Z,100497.56
2022-09-01T02:12:02.653Z,100494.47
2022-09-01T02:12:34.283Z,100501.34
2022-09-01T02:13:05.936Z,100497.97
2022-09-01T02:13:37.631Z,100495.16
2022-09-01T02:14:09.371Z,100494.59
2022-09-01T02:14:41.396Z,100499.66
2022-09-01T02:15:13.167Z,100497.84
2022-09-01T02:15:47.836Z,100494.47
2022-09-01T02:16:19.521Z,100488.97
2022-09-01T02:16:51.226Z,100497.97
2022-09-01T02:17:23.388Z,100496.72
2022-09-01T02:17:55.032Z,100494.19
2022-09-01T02:18:27.896Z,100496.72
2022-09-01T02:18:59.693Z,100492.06
2022-09-01T02:19:31.317Z,100489.25
2022-09-01T02:20:03.230Z,100496.00
2022-09-01T02:20:34.848Z,100496.56
2022-09-01T02:21:06.996Z,100494.59
2022-09-01T02:21:38.717Z,100491.66
2022-09-01T02:22:10.486Z,100499.25
2022-09-01T02:22:42.225Z,100498.25
2022-09-01T02:23:13.844Z,100500.34
2022-09-01T02:23:45.993Z,100497.41
2022-09-01T02:24:18.432Z,100492.34
2022-09-01T02:24:50.274Z,100493.75
2022-09-01T02:25:22.707Z,100491.78
2022-09-01T02:26:47.901Z,100496.31
2022-09-01T02:27:19.856Z,100488.97
2022-09-01T02:27:51.954Z,100492.63
2022-09-01T02:28:23.806Z,100489.25
2022-09-01T02:28:56.237Z,100498.09
2022-09-01T02:29:28.919Z,100493.63
2022-09-01T02:30:00.679Z,100488.97
2022-09-01T02:30:32.442Z,100497.13
2022-09-01T02:31:04.477Z,100492.75
2022-09-01T02:31:36.477Z,100499.94
2022-09-01T02:32:08.551Z,100493.63
2022-09-01T02:32:40.469Z,100484.88
2022-09-01T02:33:12.718Z,100494.47
2022-09-01T02:33:44.527Z,100495.28
2022-09-01T02:34:16.875Z,100497.13
2022-09-01T02:34:51.696Z,100488.41
2022-09-01T02:35:23.308Z,100495.28
2022-09-01T02:35:56.113Z,100500.78
2022-09-01T02:36:28.082Z,100488.16
2022-09-01T02:36:59.825Z,100490.22
2022-09-01T02:37:31.447Z,100487.28
2022-09-01T02:38:03.181Z,100489.81
2022-09-01T02:38:34.936Z,100493.31
2022-09-01T02:39:06.579Z,100494.06
2022-09-01T02:39:39.829Z,100490.66
2022-09-01T02:40:11.514Z,100486.16
2022-09-01T02:40:43.541Z,100487.28
2022-09-01T02:41:15.275Z,100485.75
2022-09-01T02:41:47.721Z,100483.75
2022-09-01T02:42:19.985Z,100487.13
2022-09-01T02:42:51.730Z,100487.56
2022-09-01T02:43:23.378Z,100487.28
2022-09-01T02:43:55.041Z,100482.78
2022-09-01T02:44:26.729Z,100482.94
2022-09-01T02:44:58.419Z,100487.28
2022-09-01T02:45:30.245Z,100483.75
2022-09-01T02:46:02.075Z,100481.22
2022-09-01T02:46:34.064Z,100488.84
2022-09-01T02:47:06.447Z,100488.13
2022-09-01T02:47:38.246Z,100477.13
2022-09-01T02:48:10.500Z,100482.19
2022-09-01T02:48:43.152Z,100481.22
2022-09-01T02:49:16.178Z,100487.56
2022-09-01T02:49:47.903Z,100487.00
2022-09-01T02:50:19.931Z,100480.66
2022-09-01T02:50:51.705Z,100483.75
2022-09-01T02:51:24.327Z,100483.63
2022-09-01T02:51:56.441Z,100487.13
2022-09-01T02:52:28.449Z,100484.31
2022-09-01T02:53:03.824Z,100484.19
2022-09-01T02:53:35.805Z,100483.47
2022-09-01T02:54:07.476Z,100481.66
2022-09-01T02:54:39.134Z,100482.47
2022-09-01T02:55:10.764Z,100481.66
2022-09-01T02:55:42.515Z,100483.22
2022-09-01T02:56:14.192Z,100480.81
2022-09-01T02:56:46.735Z,100481.66
2022-09-01T02:57:18.404Z,100481.78
2022-09-01T02:57:50.599Z,100485.00
2022-09-01T02:58:24.804Z,100488.69
2022-09-01T02:58:57.302Z,100485.00
2022-09-01T02:59:29.023Z,100484.19
2022-09-01T03:00:00.734Z,100488.41
2022-09-01T03:00:32.375Z,100488.56
2022-09-01T03:01:04.475Z,100490.22
2022-09-01T03:01:36.247Z,100488.69
2022-09-01T03:02:07.859Z,100485.88
2022-09-01T03:02:39.544Z,100486.72
2022-09-01T03:03:11.232Z,100478.56
2022-09-01T03:03:42.863Z,100487.69
2022-09-01T03:04:14.520Z,100489.38
2022-09-01T03:04:46.421Z,100486.28
2022-09-01T03:05:18.771Z,100482.78
2022-09-01T03:05:53.578Z,100481.66
2022-09-01T03:06:25.210Z,100482.47
2022-09-01T03:06:56.797Z,100483.47
2022-09-01T03:07:28.444Z,100482.47
2022-09-01T03:08:01.167Z,100479.81
2022-09-01T03:08:32.832Z,100478.84
2022-09-01T03:09:22.213Z,100484.19
2022-09-01T03:09:53.906Z,100486.16
2022-09-01T03:10:29.101Z,100489.66
2022-09-01T03:11:01.419Z,100487.81
2022-09-01T03:11:33.195Z,100490.63
2022-09-01T03:12:05.093Z,100484.47
2022-09-01T03:12:36.734Z,100492.34
2022-09-01T03:13:09.997Z,100490.50
2022-09-01T03:13:42.122Z,100490.94
2022-09-01T03:14:13.961Z,100488.97
2022-09-01T03:14:45.911Z,100481.22
2022-09-01T03:15:18.475Z,100486.44
2022-09-01T03:15:50.138Z,100487.13
2022-09-01T03:16:22.203Z,100488.13
2022-09-01T03:16:53.967Z,100491.50
2022-09-01T03:17:25.631Z,100490.81
2022-09-01T03:17:57.324Z,100492.34
2022-09-01T03:18:29.070Z,100486.16
2022-09-01T03:19:01.097Z,100485.88
2022-09-01T03:19:32.724Z,100488.69
2022-09-01T03:20:04.634Z,100491.78
2022-09-01T03:20:36.639Z,100490.94
2022-09-01T03:21:08.740Z,100488.13
2022-09-01T03:21:41.093Z,100487.28
2022-09-01T03:22:12.826Z,100488.41
2022-09-01T03:22:45.113Z,100491.78
2022-09-01T03:23:18.331Z,100484.72
2022-09-01T03:23:51.552Z,100488.41
2022-09-01T03:24:23.148Z,100490.06
2022-09-01T03:24:54.826Z,100491.34
2022-09-01T03:25:26.649Z,100495.69
2022-09-01T03:25:58.682Z,100495.69
2022-09-01T03:26:30.642Z,100488.41
2022-09-01T03:27:02.242Z,100485.00
2022-09-01T03:27:33.869Z,100493.03
2022-09-01T03:28:05.574Z,100490.63
2022-09-01T03:28:37.608Z,100491.34
2022-09-01T03:29:09.305Z,100493.03
2022-09-01T03:29:40.927Z,100495.44
2022-09-01T03:30:12.724Z,100487.41
2022-09-01T03:30:45.407Z,100490.94
2022-09-01T03:31:17.129Z,100493.03
2022-09-01T03:31:48.888Z,100487.28
2022-09-01T03:32:21.049Z,100485.72
2022-09-01T03:32:52.775Z,100493.16
2022-09-01T03:33:25.145Z,100481.38
2022-09-01T03:33:56.773Z,100493.16
2022-09-01T03:34:28.493Z,100488.41
2022-09-01T03:35:00.330Z,100495.69
2022-09-01T03:35:32.216Z,100485.16
2022-09-01T03:36:04.494Z,100495.84
2022-09-01T03:36:36.302Z,100488.41
2022-09-01T03:37:08.048Z,100486.72
2022-09-01T03:37:39.735Z,100488.41
2022-09-01T03:38:11.957Z,100493.03
2022-09-01T03:38:44.247Z,100489.25
2022-09-01T03:39:17.240Z,100485.88
2022-09-01T03:39:48.931Z,100485.59
2022-09-01T03:40:22.253Z,100496.84
2022-09-01T03:40:55.429Z,100486.28
2022-09-01T03:41:27.393Z,100484.72
2022-09-01T03:41:59.960Z,100483.19
2022-09-01T03:42:32.049Z,100487.28
2022-09-01T03:43:04.350Z,100493.47
2022-09-01T03:43:37.104Z,100482.06
2022-09-01T03:44:17.444Z,100490.06
2022-09-01T03:44:49.261Z,100480.53
2022-09-01T03:45:21.383Z,100489.09
2022-09-01T03:45:53.128Z,100489.25
2022-09-01T03:46:25.314Z,100481.09
2022-09-01T03:46:57.398Z,100489.25
2022-09-01T03:47:29.059Z,100478.25
2022-09-01T03:48:00.838Z,100478.25
2022-09-01T03:48:32.528Z,100485.44
2022-09-01T03:49:04.190Z,100478.25
2022-09-01T03:49:35.978Z,100483.63
2022-09-01T03:50:08.372Z,100484.72
2022-09-01T03:50:40.353Z,100491.63
2022-09-01T03:51:11.989Z,100481.91
2022-09-01T03:51:43.702Z,100481.63
2022-09-01T03:52:15.824Z,100489.78
2022-09-01T03:52:50.844Z,100489.78
2022-09-01T03:53:23.105Z,100483.63
2022-09-01T03:53:55.252Z,100497.94
2022-09-01T03:54:27.082Z,100492.03
2022-09-01T03:54:58.686Z,100495.53
2022-09-01T03:55:31.397Z,100500.75
2022-09-01T03:56:03.420Z,100491.91
2022-09-01T03:56:35.182Z,100488.41
2022-09-01T03:57:06.835Z,100491.75
2022-09-01T03:57:38.515Z,100495.13
2022-09-01T03:58:10.380Z,100499.09
2022-09-01T03:58:43.294Z,100488.53
2022-09-01T03:59:15.064Z,100497.53
2022-09-01T03:59:46.836Z,100495.97
2022-09-01T04:00:18.806Z,100494.72
2022-09-01T04:00:52.830Z,100494.56
2022-09-01T04:01:28.009Z,100495.69
2022-09-01T04:01:59.925Z,100503.28
2022-09-01T04:02:31.696Z,100501.63
2022-09-01T04:03:04.119Z,100493.59
2022-09-01T04:03:36.194Z,100499.78
2022-09-01T04:04:08.268Z,100495.28
2022-09-01T04:04:39.936Z,100494.16
2022-09-01T04:05:11.615Z,100499.66
2022-09-01T04:05:44.296Z,100494.31
2022-09-01T04:06:16.683Z,100497.13
2022-09-01T04:06:48.690Z,100498.66
2022-09-01T04:07:20.438Z,100488.69
2022-09-01T04:07:52.127Z,100498.38
2022-09-01T04:08:23.875Z,100488.41
2022-09-01T04:08:55.664Z,100494.31
2022-09-01T04:09:27.345Z,100495.41
2022-09-01T04:09:59.107Z,100490.63
2022-09-01T04:10:31.238Z,100490.63
2022-09-01T04:11:04.272Z,100490.94
2022-09-01T04:11:36.077Z,100486.41
2022-09-01T04:12:08.099Z,100484.59
2022-09-01T04:12:40.143Z,100494.16
2022-09-01T04:13:12.124Z,100489.78
2022-09-01T04:13:47.633Z,100493.31
2022-09-01T04:14:19.408Z,100492.19
2022-09-01T04:14:51.021Z,100489.22
2022-09-01T04:15:23.007Z,100487.25
2022-09-01T04:15:54.680Z,100488.97
2022-09-01T04:16:29.929Z,100486.16
2022-09-01T04:17:01.612Z,100486.97
2022-09-01T04:17:33.254Z,100480.81
2022-09-01T04:18:05.279Z,100488.69
2022-09-01T04:18:37.073Z,100483.34
2022-09-01T04:19:09.206Z,100488.53
2022-09-01T04:19:40.935Z,100491.63
2022-09-01T04:20:12.636Z,100487.94
2022-09-01T04:20:44.313Z,100489.53
2022-09-01T04:21:16.209Z,100491.34
2022-09-01T04:21:48.327Z,100487.69
2022-09-01T04:22:20.042Z,100488.69
2022-09-01T04:22:51.776Z,100484.31
2022-09-01T04:23:27.344Z,100488.69
2022-09-01T04:23:59.073Z,100489.66
2022-09-01T04:24:32.078Z,100498.38
2022-09-01T04:25:05.098Z,100489.25
2022-09-01T04:25:37.202Z,100493.75
2022-09-01T04:26:10.079Z,100490.06
2022-09-01T04:26:42.012Z,100489.25
2022-09-01T04:27:14.108Z,100496.56
2022-09-01T04:27:45.762Z,100492.06
2022-09-01T04:28:18.169Z,100485.00
2022-09-01T04:28:50.164Z,100485.00
2022-09-01T04:29:22.498Z,100486.72
2022-09-01T04:29:57.693Z,100483.91
2022-09-01T04:30:29.636Z,100489.25
2022-09-01T04:31:02.671Z,100491.34
2022-09-01T04:31:34.965Z,100487.25
2022-09-01T04:32:07.999Z,100486.97
2022-09-01T04:32:40.181Z,100485.28
2022-09-01T04:33:12.549Z,100483.34
2022-09-01T04:33:44.328Z,100479.66
2022-09-01T04:34:16.731Z,100482.19
2022-09-01T04:34:48.375Z,100479.94
2022-09-01T04:35:20.203Z,100469.84
2022-09-01T04:35:51.907Z,100476.97
2022-09-01T04:36:26.298Z,100476.84
2022-09-01T04:36:57.897Z,100482.47
2022-09-01T04:37:29.535Z,100484.31
2022-09-01T04:38:01.591Z,100478.81
2022-09-01T04:38:33.336Z,100484.44
2022-09-01T04:39:05.336Z,100489.94
2022-09-01T04:39:37.241Z,100490.94
2022-09-01T04:40:09.138Z,100488.25
2022-09-01T04:40:40.948Z,100489.94
2022-09-01T04:41:12.647Z,100485.59
2022-09-01T04:41:44.543Z,100491.50
2022-09-01T04:42:16.308Z,100484.31
2022-09-01T04:42:48.067Z,100492.31
2022-09-01T04:43:19.662Z,100490.50
2022-09-01T04:43:51.576Z,100486.97
2022-09-01T04:44:24.600Z,100489.66
2022-09-01T04:44:56.306Z,100489.66
2022-09-01T04:45:27.979Z,100482.47
2022-09-01T04:45:59.776Z,100493.31
2022-09-01T04:46:32.537Z,100487.81
2022-09-01T04:47:04.375Z,100490.94
2022-09-01T04:47:37.103Z,100490.94
2022-09-01T04:48:09.408Z,100491.50
2022-09-01T04:48:41.743Z,100492.75
2022-09-01T04:49:13.603Z,100490.63
2022-09-01T04:49:48.461Z,100488.69
2022-09-01T04:50:20.065Z,100499.38
2022-09-01T04:50:51.798Z,100492.59
2022-09-01T04:51:24.083Z,100494.31
2022-09-01T04:51:56.511Z,100492.31
2022-09-01T04:52:28.463Z,100488.81
2022-09-01T04:53:00.698Z,100498.38
2022-09-01T04:53:32.312Z,100488.97
2022-09-01T04:54:04.226Z,100493.16
2022-09-01T04:54:37.678Z,100483.75
2022-09-01T04:55:10.495Z,100485.28
2022-09-01T04:55:42.450Z,100491.75
2022-09-01T04:56:18.358Z,100490.50
2022-09-01T04:56:50.143Z,100488.69
2022-09-01T04:57:22.095Z,100491.22
2022-09-01T04:57:54.007Z,100493.31
2022-09-01T04:58:26.053Z,100487.25
2022-09-01T04:58:57.721Z,100484.72
2022-09-01T04:59:29.527Z,100483.75
2022-09-01T05:00:01.473Z,100488.97
2022-09-01T05:00:33.836Z,100493.31
2022-09-01T05:01:13.712Z,100490.63
2022-09-01T05:01:45.823Z,100482.59
2022-09-01T05:02:17.593Z,100484.72
2022-09-01T05:02:51.537Z,100482.78
2022-09-01T05:03:24.994Z,100489.78
2022-09-01T05:03:56.651Z,100490.94
2022-09-01T05:04:29.619Z,100487.25
2022-09-01T05:05:01.347Z,100491.50
2022-09-01T05:05:36.588Z,100488.97
2022-09-01T05:06:13.474Z,100484.44
2022-09-01T05:06:46.378Z,100484.44
2022-09-01T05:07:18.012Z,100487.94
2022-09-01T05:07:49.621Z,100488.41
2022-09-01T05:08:23.612Z,100484.16
2022-09-01T05:08:56.441Z,100487.81
2022-09-01T05:09:28.502Z,100489.22
2022-09-01T05:10:01.393Z,100488.97
2022-09-01T05:10:33.985Z,100487.81
2022-09-01T05:11:06.030Z,100488.25
2022-09-01T05:11:38.119Z,100494.56
2022-09-01T05:12:10.353Z,100491.34
2022-09-01T05:12:44.610Z,100486.69
2022-09-01T05:13:16.258Z,100483.88
2022-09-01T05:13:48.442Z,100495.97
2022-09-01T05:14:20.405Z,100484.44
2022-09-01T05:14:52.012Z,100483.63
2022-09-01T05:15:23.569Z,100489.94
2022-09-01T05:16:02.141Z,100490.63
2022-09-01T05:16:34.593Z,100488.69
2022-09-01T05:17:06.617Z,100481.91
2022-09-01T05:17:38.194Z,100488.13
2022-09-01T05:18:09.810Z,100486.28
2022-09-01T05:18:44.536Z,100489.78
2022-09-01T05:19:16.206Z,100489.66
2022-09-01T05:19:48.295Z,100492.31
2022-09-01T05:20:19.987Z,100486.16
2022-09-01T05:20:51.633Z,100487.81
2022-09-01T05:21:23.983Z,100487.81
2022-09-01T05:21:55.921Z,100489.78
2022-09-01T05:22:27.922Z,100489.66
2022-09-01T05:22:59.762Z,100493.75
2022-09-01T05:23:31.770Z,100491.50
2022-09-01T05:24:03.855Z,100486.97
2022-09-01T05:24:39.759Z,100476.28
2022-09-01T05:25:12.984Z,100484.88
2022-09-01T05:25:44.936Z,100491.22
2022-09-01T05:26:17.886Z,100493.16
2022-09-01T05:26:49.493Z,100493.75
2022-09-01T05:27:21.099Z,100485.00
2022-09-01T05:27:52.702Z,100493.16
2022-09-01T05:28:24.319Z,100483.34
2022-09-01T05:28:56.904Z,100488.53
2022-09-01T05:29:28.671Z,100490.50
2022-09-01T05:30:00.264Z,100482.47
2022-09-01T05:30:33.285Z,100487.69
2022-09-01T05:31:05.016Z,100482.47
2022-09-01T05:31:36.722Z,100488.97
2022-09-01T05:32:08.297Z,100478.81
2022-09-01T05:32:40.233Z,100488.97
2022-09-01T05:33:13.836Z,100491.63
2022-09-01T05:33:46.042Z,100495.97
2022-09-01T05:34:17.786Z,100490.78
2022-09-01T05:34:49.776Z,100486.41
2022-09-01T05:35:21.710Z,100487.13
2022-09-01T05:35:59.561Z,100487.94
2022-09-01T05:36:31.201Z,100492.59
2022-09-01T05:37:03.126Z,100485.28
2022-09-01T05:37:37.755Z,100491.63
2022-09-01T05:38:09.758Z,100489.94
2022-09-01T05:38:41.995Z,100494.03
2022-09-01T05:39:13.896Z,100487.94
2022-09-01T05:39:45.874Z,100488.97
2022-09-01T05:40:17.578Z,100488.97
2022-09-01T05:40:55.891Z,100493.88
2022-09-01T05:41:27.567Z,100497.66
2022-09-01T05:41:59.426Z,100488.81
2022-09-01T05:42:31.442Z,100494.16
2022-09-01T05:43:03.075Z,100490.63
2022-09-01T05:43:34.662Z,100492.31
2022-09-01T05:44:06.954Z,100493.16
2022-09-01T05:44:39.497Z,100496.69
2022-09-01T05:45:11.510Z,100498.22
2022-09-01T05:46:05.148Z,100495.00
2022-09-01T05:46:35.360Z,100495.00
2022-09-01T05:47:07.203Z,100486.72
2022-09-01T05:47:39.257Z,100493.75
2022-09-01T05:48:13.492Z,100495.44
2022-09-01T05:48:45.335Z,100489.53
2022-09-01T05:49:17.314Z,100487.81
2022-09-01T05:49:49.233Z,100492.31
2022-09-01T05:50:20.882Z,100495.00
2022-09-01T05:50:52.545Z,100495.84
2022-09-01T05:51:43.353Z,100490.50
2022-09-01T05:52:15.340Z,100495.44
2022-09-01T05:52:47.132Z,100500.78
2022-09-01T05:53:20.149Z,100486.97
2022-09-01T05:53:53.724Z,100490.63
2022-09-01T05:54:25.803Z,100492.06
2022-09-01T05:54:58.034Z,100496.44
2022-09-01T05:55:29.644Z,100492.47
2022-09-01T05:56:01.370Z,100489.78
2022-09-01T05:56:32.955Z,100495.13
2022-09-01T05:57:30.238Z,100495.13
2022-09-01T05:57:56.253Z,100492.59
2022-09-01T05:59:22.349Z,100494.44
2022-09-01T05:59:24.061Z,100490.78
2022-09-01T05:59:57.068Z,100497.66
2022-09-01T06:00:28.691Z,100495.69
2022-09-01T06:01:00.689Z,100500.34
2022-09-01T06:01:32.368Z,100502.47
2022-09-01T06:02:04.136Z,100493.31
2022-09-01T06:02:35.927Z,100492.47
2022-09-01T06:03:08.141Z,100496.97
2022-09-01T06:03:39.836Z,100498.50
2022-09-01T06:04:11.409Z,100500.34
2022-09-01T06:04:43.000Z,100496.84
2022-09-01T06:05:14.568Z,100503.28
2022-09-01T06:05:46.797Z,100498.50
2022-09-01T06:06:18.366Z,100504.84
2022-09-01T06:07:07.002Z,100505.81
2022-09-01T06:07:39.668Z,100509.66
2022-09-01T06:08:11.381Z,100507.66
2022-09-01T06:08:46.801Z,100501.63
2022-09-01T06:09:18.583Z,100510.47
2022-09-01T06:09:50.775Z,100497.13
2022-09-01T06:10:23.117Z,100496.28
2022-09-01T06:10:55.093Z,100502.59
2022-09-01T06:11:26.851Z,100498.81
2022-09-01T06:11:58.915Z,100497.94
2022-09-01T06:12:31.348Z,100503.03
2022-09-01T06:13:03.365Z,100501.19